createdAt,value
2022-10-22T00:00:13.719Z,57.43
2022-10-22T00:03:30.439Z,55.95
2022-10-22T00:06:42.831Z,56.95
2022-10-22T00:09:54.838Z,54.78
2022-10-22T00:13:06.697Z,54.75
2022-10-22T00:16:19.359Z,48.98
2022-10-22T00:19:31.155Z,48.40
2022-10-22T00:22:42.907Z,46.65
2022-10-22T00:25:55.671Z,48.30
2022-10-22T00:29:07.269Z,39.90
2022-10-22T00:32:19.429Z,43.20
2022-10-22T00:35:31.360Z,41.13
2022-10-22T00:38:43.162Z,41.90
2022-10-22T00:41:57.339Z,37.25
2022-10-22T00:45:31.643Z,41.43
2022-10-22T00:48:43.926Z,35.90
2022-10-22T00:51:55.762Z,38.25
2022-10-22T00:55:09.099Z,47.48
2022-10-22T00:58:21.962Z,47.30
2022-10-22T01:01:36.391Z,38.08
2022-10-22T01:04:48.591Z,41.15
2022-10-22T01:08:01.064Z,39.18
2022-10-22T01:11:22.059Z,40.00
2022-10-22T01:14:39.640Z,41.33
2022-10-22T01:17:59.924Z,43.95
2022-10-22T01:21:31.011Z,46.38
2022-10-22T01:25:02.222Z,43.28
2022-10-22T01:28:21.789Z,42.10
2022-10-22T01:31:39.571Z,45.25
2022-10-22T01:34:54.903Z,43.48
2022-10-22T01:38:12.038Z,45.43
2022-10-22T01:41:24.377Z,41.98
2022-10-22T01:44:38.610Z,49.68
2022-10-22T01:48:00.446Z,45.48
2022-10-22T01:51:25.849Z,52.90
2022-10-22T01:54:44.327Z,47.25
2022-10-22T01:58:04.202Z,45.28
2022-10-22T02:01:25.236Z,44.73
2022-10-22T02:04:42.762Z,46.53
2022-10-22T02:07:58.653Z,45.33
2022-10-22T02:11:11.561Z,46.95
2022-10-22T02:14:25.578Z,42.75
2022-10-22T02:17:40.905Z,45.73
2022-10-22T02:20:54.283Z,43.55
2022-10-22T02:24:07.101Z,45.68
2022-10-22T02:27:26.985Z,44.93
2022-10-22T02:30:39.806Z,51.18
2022-10-22T02:33:55.327Z,45.63
2022-10-22T02:37:08.518Z,43.45
2022-10-22T02:40:21.856Z,49.83
2022-10-22T02:43:34.711Z,45.35
2022-10-22T02:46:48.886Z,48.30
2022-10-22T02:50:00.623Z,43.00
2022-10-22T02:53:12.314Z,44.50
2022-10-22T02:56:24.268Z,46.03
2022-10-22T02:59:36.051Z,51.75
2022-10-22T03:02:47.675Z,45.88
2022-10-22T03:05:59.507Z,54.58
2022-10-22T03:09:11.383Z,47.40
2022-10-22T03:12:22.996Z,43.28
2022-10-22T03:15:34.716Z,46.68
2022-10-22T03:18:46.543Z,45.65
2022-10-22T03:22:03.346Z,44.25
2022-10-22T03:25:21.250Z,47.75
2022-10-22T03:28:33.487Z,46.13
2022-10-22T03:31:45.130Z,45.18
2022-10-22T03:34:56.999Z,41.20
2022-10-22T03:38:09.186Z,44.20
2022-10-22T03:41:21.500Z,47.00
2022-10-22T03:44:34.333Z,43.30
2022-10-22T03:47:46.316Z,42.80
2022-10-22T03:50:58.543Z,43.85
2022-10-22T03:54:11.037Z,46.80
2022-10-22T03:57:23.278Z,43.35
2022-10-22T04:00:34.952Z,42.20
2022-10-22T04:03:46.853Z,46.48
2022-10-22T04:06:58.659Z,50.18
2022-10-22T04:10:12.658Z,48.53
2022-10-22T04:13:24.271Z,41.80
2022-10-22T04:16:36.250Z,45.08
2022-10-22T04:19:48.077Z,44.38
2022-10-22T04:22:59.760Z,50.40
2022-10-22T04:26:13.314Z,45.05
2022-10-22T04:29:25.109Z,40.28
2022-10-22T04:32:37.121Z,39.83
2022-10-22T04:35:48.806Z,47.50
2022-10-22T04:39:03.682Z,42.30
2022-10-22T04:42:15.576Z,42.73
2022-10-22T04:45:27.310Z,40.93
2022-10-22T04:48:39.226Z,41.28
2022-10-22T04:51:50.893Z,50.45
2022-10-22T04:55:02.771Z,46.13
2022-10-22T04:58:14.619Z,49.90
2022-10-22T05:01:29.940Z,45.48
2022-10-22T05:04:41.787Z,41.65
2022-10-22T05:07:53.535Z,49.20
2022-10-22T05:11:05.529Z,46.58
2022-10-22T05:14:19.385Z,43.78
2022-10-22T05:17:31.069Z,49.35
2022-10-22T05:20:45.065Z,47.43
2022-10-22T05:23:59.866Z,55.15
2022-10-22T05:27:11.734Z,48.33
2022-10-22T05:30:23.810Z,45.60
2022-10-22T05:33:38.369Z,51.00
2022-10-22T05:36:50.450Z,44.93
2022-10-22T05:40:12.715Z,51.63
2022-10-22T05:43:16.607Z,48.05
2022-10-22T05:46:30.578Z,44.93
2022-10-22T05:49:42.667Z,42.10
2022-10-22T05:52:54.440Z,46.30
2022-10-22T05:56:10.342Z,47.48
2022-10-22T05:59:22.204Z,48.53
2022-10-22T06:02:33.909Z,46.83
2022-10-22T06:05:45.798Z,46.03
2022-10-22T06:09:00.042Z,42.70
2022-10-22T06:12:13.737Z,42.95
2022-10-22T06:15:26.361Z,43.23
2022-10-22T06:18:38.970Z,43.38
2022-10-22T06:21:51.998Z,39.03
2022-10-22T06:25:03.611Z,37.35
2022-10-22T06:28:15.593Z,41.55
2022-10-22T06:31:27.417Z,40.15
2022-10-22T06:34:39.107Z,39.45
2022-10-22T06:37:51.424Z,39.93
2022-10-22T06:41:07.966Z,39.38
2022-10-22T06:44:23.222Z,39.48
2022-10-22T06:47:35.096Z,38.50
2022-10-22T06:50:46.817Z,37.50
2022-10-22T06:53:59.416Z,34.98
2022-10-22T06:57:11.210Z,39.58
2022-10-22T07:00:24.768Z,43.33
2022-10-22T07:03:36.786Z,71.48
2022-10-22T07:06:48.470Z,51.38
2022-10-22T07:10:00.428Z,50.08
2022-10-22T07:13:12.331Z,47.05
2022-10-22T07:16:29.603Z,44.35
2022-10-22T07:19:39.248Z,45.35
2022-10-22T07:22:51.285Z,39.50
2022-10-22T07:26:03.469Z,42.68
2022-10-22T07:29:16.254Z,47.63
2022-10-22T07:32:28.045Z,42.18
2022-10-22T07:35:41.277Z,38.20
2022-10-22T07:38:56.696Z,38.45
2022-10-22T07:42:08.568Z,33.23
2022-10-22T07:45:21.376Z,38.58
2022-10-22T07:48:33.580Z,34.03
2022-10-22T07:51:45.770Z,35.45
2022-10-22T07:54:57.542Z,28.78
2022-10-22T07:58:09.712Z,40.55
2022-10-22T08:01:21.827Z,29.95
2022-10-22T08:04:33.764Z,32.50
2022-10-22T08:07:45.907Z,30.10
2022-10-22T08:10:59.921Z,30.60
2022-10-22T08:14:11.810Z,30.68
2022-10-22T08:17:23.690Z,30.08
2022-10-22T08:20:36.033Z,36.15
2022-10-22T08:23:48.197Z,26.73
2022-10-22T08:27:00.512Z,28.45
2022-10-22T08:30:15.931Z,26.53
2022-10-22T08:33:27.726Z,25.90
2022-10-22T08:36:39.769Z,24.43
2022-10-22T08:39:51.740Z,25.43
2022-10-22T08:43:37.224Z,25.48
2022-10-22T08:47:14.259Z,26.33
2022-10-22T08:50:34.214Z,25.83
2022-10-22T08:53:57.662Z,24.10
2022-10-22T08:57:27.225Z,26.68
2022-10-22T09:00:46.221Z,23.30
2022-10-22T09:04:03.235Z,26.58
2022-10-22T09:10:31.915Z,27.48
2022-10-22T09:13:44.531Z,29.95
2022-10-22T09:17:16.796Z,30.30
2022-10-22T09:20:36.068Z,28.28
2022-10-22T09:23:59.021Z,27.30
2022-10-22T09:27:19.289Z,29.68
2022-10-22T09:30:34.641Z,28.18
2022-10-22T09:33:49.365Z,32.88
2022-10-22T09:37:08.953Z,35.58
2022-10-22T09:40:23.889Z,28.43
2022-10-22T09:43:39.826Z,32.73
2022-10-22T09:46:51.888Z,29.28
2022-10-22T09:50:25.305Z,25.90
2022-10-22T09:53:45.847Z,26.55
2022-10-22T09:57:05.449Z,29.58
2022-10-22T10:00:25.026Z,31.53
2022-10-22T10:03:38.565Z,30.15
2022-10-22T10:06:51.064Z,33.58
2022-10-22T10:10:03.248Z,30.08
2022-10-22T10:13:45.855Z,32.68
2022-10-22T10:17:05.062Z,31.23
2022-10-22T10:20:34.164Z,32.93
2022-10-22T10:23:52.941Z,29.28
2022-10-22T10:27:10.152Z,32.73
2022-10-22T10:30:24.896Z,37.50
2022-10-22T10:33:45.423Z,29.48
2022-10-22T10:37:05.591Z,46.68
2022-10-22T10:40:31.799Z,44.58
2022-10-22T10:43:53.124Z,27.63
2022-10-22T10:47:15.143Z,29.93
2022-10-22T10:50:34.253Z,27.85
2022-10-22T10:54:08.396Z,25.95
2022-10-22T10:57:30.088Z,40.03
2022-10-22T11:00:47.967Z,36.55
2022-10-22T11:04:27.994Z,29.23
2022-10-22T11:07:45.388Z,26.33
2022-10-22T11:11:02.183Z,27.18
2022-10-22T11:14:19.510Z,25.08
2022-10-22T11:17:36.466Z,44.03
2022-10-22T11:21:05.183Z,30.98
2022-10-22T11:24:23.623Z,28.58
2022-10-22T11:27:41.880Z,26.98
2022-10-22T11:31:00.341Z,28.83
2022-10-22T11:34:33.203Z,31.18
2022-10-22T11:37:40.778Z,28.35
2022-10-22T11:40:59.101Z,31.03
2022-10-22T11:44:19.608Z,28.05
2022-10-22T11:47:36.716Z,29.75
2022-10-22T11:54:42.184Z,31.58
2022-10-22T11:57:55.449Z,38.03
2022-10-22T12:01:31.056Z,38.05
2022-10-22T12:04:53.257Z,39.88
2022-10-22T12:08:14.837Z,37.90
2022-10-22T12:11:29.673Z,34.23
2022-10-22T12:14:56.853Z,36.05
2022-10-22T12:18:11.915Z,32.73
2022-10-22T12:21:24.194Z,35.85
2022-10-22T12:24:42.662Z,39.65
2022-10-22T12:27:58.620Z,38.83
2022-10-22T12:31:11.041Z,38.65
2022-10-22T12:34:26.324Z,35.78
2022-10-22T12:37:41.242Z,36.20
2022-10-22T12:40:54.497Z,35.85
2022-10-22T12:44:09.791Z,40.50
2022-10-22T12:47:24.148Z,35.30
2022-10-22T12:50:41.884Z,38.45
2022-10-22T12:53:57.231Z,38.78
2022-10-22T12:57:11.899Z,39.68
2022-10-22T13:00:34.986Z,39.75
2022-10-22T13:03:52.876Z,36.25
2022-10-22T13:07:25.838Z,41.10
2022-10-22T13:10:43.017Z,42.73
2022-10-22T13:17:19.680Z,40.55
2022-10-22T13:20:31.688Z,41.80
2022-10-22T13:23:45.420Z,37.83
2022-10-22T13:27:00.562Z,50.70
2022-10-22T13:30:24.343Z,44.58
2022-10-22T13:33:40.304Z,47.70
2022-10-22T13:36:52.545Z,43.48
2022-10-22T13:40:07.775Z,43.78
2022-10-22T13:43:19.614Z,45.68
2022-10-22T13:46:33.963Z,48.38
2022-10-22T13:49:46.803Z,53.15
2022-10-22T13:53:01.647Z,46.30
2022-10-22T13:56:18.061Z,46.28
2022-10-22T13:59:29.849Z,45.25
2022-10-22T14:02:43.141Z,50.20
2022-10-22T14:05:56.844Z,53.88
2022-10-22T14:09:12.821Z,46.40
2022-10-22T14:12:25.208Z,44.08
2022-10-22T14:15:37.057Z,48.98
2022-10-22T14:18:49.156Z,49.60
2022-10-22T14:22:01.752Z,49.13
2022-10-22T14:25:16.292Z,49.70
2022-10-22T14:28:29.662Z,50.60
2022-10-22T14:31:43.238Z,57.58
2022-10-22T14:34:56.477Z,50.75
2022-10-22T14:38:08.331Z,52.18
2022-10-22T14:41:27.109Z,51.40
2022-10-22T14:44:38.996Z,54.05
2022-10-22T14:47:50.940Z,57.23
2022-10-22T14:51:02.867Z,55.08
2022-10-22T14:54:14.728Z,50.48
2022-10-22T14:57:26.556Z,54.28
2022-10-22T15:00:39.301Z,50.10
2022-10-22T15:03:51.290Z,55.30
2022-10-22T15:07:03.059Z,55.05
2022-10-22T15:10:16.830Z,48.83
2022-10-22T15:13:28.646Z,53.80
2022-10-22T15:16:40.529Z,48.53
2022-10-22T15:19:53.318Z,51.50
2022-10-22T15:23:05.057Z,54.65
2022-10-22T15:26:18.286Z,50.83
2022-10-22T15:29:31.019Z,48.03
2022-10-22T15:32:43.103Z,56.35
2022-10-22T15:35:55.496Z,52.70
2022-10-22T15:39:13.943Z,53.65
2022-10-22T15:42:25.753Z,55.63
2022-10-22T15:45:37.555Z,53.30
2022-10-22T15:48:49.690Z,59.43
2022-10-22T15:52:02.345Z,56.68
2022-10-22T15:55:15.475Z,61.05
2022-10-22T15:58:27.415Z,62.15
2022-10-22T16:01:40.596Z,59.40
2022-10-22T16:04:52.623Z,57.13
2022-10-22T16:08:04.595Z,61.70
2022-10-22T16:11:17.329Z,57.38
2022-10-22T16:14:29.821Z,61.25
2022-10-22T16:17:41.719Z,58.25
2022-10-22T16:20:53.878Z,61.20
2022-10-22T16:24:08.123Z,65.25
2022-10-22T16:27:20.166Z,65.10
2022-10-22T16:30:32.068Z,56.85
2022-10-22T16:33:49.210Z,61.93
2022-10-22T16:37:00.397Z,63.30
2022-10-22T16:40:16.273Z,67.73
2022-10-22T16:43:28.105Z,62.98
2022-10-22T16:46:42.087Z,64.50
2022-10-22T16:49:53.816Z,65.20
2022-10-22T16:53:05.727Z,67.08
2022-10-22T16:56:20.234Z,64.95
2022-10-22T16:59:32.198Z,56.63
2022-10-22T17:02:44.179Z,63.50
2022-10-22T17:05:56.223Z,66.80
2022-10-22T17:09:08.557Z,68.13
2022-10-22T17:12:20.430Z,72.25
2022-10-22T17:15:32.363Z,64.60
2022-10-22T17:21:58.485Z,65.85
2022-10-22T17:25:21.998Z,68.18
2022-10-22T17:28:35.978Z,70.78
2022-10-22T17:31:50.257Z,71.65
2022-10-22T17:35:02.043Z,76.50
2022-10-22T17:38:14.066Z,77.93
2022-10-22T17:41:29.063Z,80.18
2022-10-22T17:44:40.649Z,82.30
2022-10-22T17:47:52.423Z,93.38
2022-10-22T17:51:06.643Z,87.80
2022-10-22T17:54:20.058Z,86.75
2022-10-22T17:57:31.771Z,89.08
2022-10-22T18:00:44.748Z,94.83
2022-10-22T18:03:57.555Z,85.65
2022-10-22T18:07:09.316Z,89.85
2022-10-22T18:10:21.335Z,84.85
2022-10-22T18:13:33.633Z,92.25
2022-10-22T18:16:45.402Z,84.35
2022-10-22T18:19:57.229Z,86.83
2022-10-22T18:23:08.947Z,78.95
2022-10-22T18:26:25.816Z,86.13
2022-10-22T18:29:36.274Z,78.75
2022-10-22T18:32:47.986Z,88.30
2022-10-22T18:36:00.410Z,86.38
2022-10-22T18:39:15.709Z,75.70
2022-10-22T18:42:31.872Z,64.58
2022-10-22T18:45:46.871Z,60.63
2022-10-22T18:49:01.068Z,58.13
2022-10-22T18:52:13.228Z,53.13
2022-10-22T18:55:25.215Z,50.93
2022-10-22T18:58:37.088Z,45.85
2022-10-22T19:01:48.889Z,46.75
2022-10-22T19:05:01.454Z,43.43
2022-10-22T19:08:13.435Z,45.33
2022-10-22T19:11:25.457Z,39.85
2022-10-22T19:14:37.455Z,41.55
2022-10-22T19:17:49.272Z,41.13
2022-10-22T19:21:05.850Z,41.55
2022-10-22T19:24:20.191Z,39.60
2022-10-22T19:27:32.131Z,35.68
2022-10-22T19:30:47.684Z,37.38
2022-10-22T19:34:00.022Z,31.88
2022-10-22T19:37:11.920Z,35.15
2022-10-22T19:40:26.081Z,36.33
2022-10-22T19:43:38.179Z,33.43
2022-10-22T19:46:49.980Z,33.10
2022-10-22T19:50:01.766Z,33.03
2022-10-22T19:53:13.884Z,34.40
2022-10-22T19:56:27.076Z,31.38
2022-10-22T19:59:39.016Z,35.33
2022-10-22T20:02:52.745Z,46.20
2022-10-22T20:06:05.263Z,38.10
2022-10-22T20:09:18.353Z,37.78
2022-10-22T20:12:30.401Z,43.70
2022-10-22T20:15:42.921Z,38.98
2022-10-22T20:18:54.811Z,35.65
2022-10-22T20:22:06.693Z,39.30
2022-10-22T20:25:19.640Z,39.75
2022-10-22T20:28:31.594Z,41.43
2022-10-22T20:31:43.391Z,37.10
2022-10-22T20:34:55.283Z,43.63
2022-10-22T20:38:07.061Z,45.38
2022-10-22T20:41:21.463Z,42.28
2022-10-22T20:44:33.582Z,46.23
2022-10-22T20:47:51.583Z,55.23
2022-10-22T20:51:00.112Z,44.70
2022-10-22T20:54:13.083Z,49.10
2022-10-22T20:57:24.948Z,38.23
2022-10-22T21:00:39.373Z,44.73
2022-10-22T21:03:51.182Z,44.05
2022-10-22T21:07:04.023Z,46.83
2022-10-22T21:10:16.539Z,41.15
2022-10-22T21:13:28.456Z,39.63
2022-10-22T21:16:42.988Z,40.35
2022-10-22T21:19:54.784Z,41.50
2022-10-22T21:23:06.595Z,37.80
2022-10-22T21:26:18.635Z,39.93
2022-10-22T21:29:30.620Z,37.58
2022-10-22T21:32:42.682Z,42.98
2022-10-22T21:36:00.414Z,38.43
2022-10-22T21:39:12.922Z,39.23
2022-10-22T21:42:24.752Z,36.73
2022-10-22T21:45:36.800Z,36.98
2022-10-22T21:48:49.661Z,36.10
2022-10-22T21:52:02.980Z,35.75
2022-10-22T21:55:15.961Z,35.50
2022-10-22T21:58:27.680Z,36.28
2022-10-22T22:01:40.238Z,30.60
2022-10-22T22:04:54.152Z,34.30
2022-10-22T22:08:05.816Z,32.45
2022-10-22T22:11:20.992Z,33.65
2022-10-22T22:14:32.772Z,31.28
2022-10-22T22:17:44.821Z,30.05
2022-10-22T22:20:56.486Z,27.73
2022-10-22T22:24:10.560Z,32.75
2022-10-22T22:27:22.663Z,28.95
2022-10-22T22:30:35.489Z,30.10
2022-10-22T22:33:47.606Z,31.55
2022-10-22T22:36:59.305Z,29.00
2022-10-22T22:40:13.104Z,31.20
2022-10-22T22:43:24.846Z,33.43
2022-10-22T22:46:36.753Z,28.45
2022-10-22T22:49:48.773Z,25.98
2022-10-22T22:53:00.531Z,28.05
2022-10-22T22:56:25.345Z,26.85
2022-10-22T22:59:37.117Z,24.88
2022-10-22T23:02:48.818Z,28.25
2022-10-22T23:06:00.500Z,28.13
2022-10-22T23:09:14.736Z,24.15
2022-10-22T23:12:26.563Z,26.80
2022-10-22T23:15:38.279Z,27.30
2022-10-22T23:18:51.551Z,21.90
2022-10-22T23:22:03.562Z,26.38
2022-10-22T23:25:17.232Z,25.03
2022-10-22T23:28:30.381Z,25.25
2022-10-22T23:31:42.282Z,25.23
2022-10-22T23:34:53.901Z,26.85
2022-10-22T23:38:05.674Z,26.50
2022-10-22T23:41:17.690Z,27.05
2022-10-22T23:44:30.619Z,28.93
2022-10-22T23:47:42.698Z,30.55
2022-10-22T23:50:55.498Z,29.48
2022-10-22T23:54:09.932Z,28.15
2022-10-22T23:57:21.571Z,27.55
